Aviation Digital Data Service (ADDS)

Output produced by METARs form (2018 UTC 13 August 2020)
found at http://aviationweather.gov/metar/data/
 
LSZH 131950Z VRB02KT CAVOK 19/16 Q1017 NOSIG
LSZH 131920Z VRB02KT CAVOK 19/17 Q1017 NOSIG
TAF LSZH 131725Z 1318/1424 VRB03KT 9999 SCT060 TX27/1415Z TN18/1404Z 
     PROB40 
     TEMPO 1319/1323 25015G25KT 6000 TSRA SCT060CB 
     TEMPO 1405/1418 8000 SHRA SCT060TCU 
     PROB40 
     TEMPO 1405/1418 25015G25KT 4500 TSRA SCT060CB
       
LFSB 132000Z AUTO 20003KT CAVOK 22/16 Q1015 NOSIG
LFSB 131930Z AUTO VRB02KT CAVOK 22/16 Q1015 NOSIG
TAF LFSB 131700Z 1318/1418 11006KT 9999 SCT070CB BKN120 
     PROB40 
     TEMPO 1318/1319 VRB20G35KT 2000 TSRA 
     BECMG 1320/1322 CAVOK 
     TEMPO 1406/1415 4000 SHRA SCT050TCU 
     PROB30 
     TEMPO 1406/1414 2000 TSRA FEW040CB
       
LSZG 131950Z AUTO 26004KT 9999 //////TCU 20/14 Q1017
LSZG 131920Z AUTO VRB02KT 9999 //////TCU 21/13 Q1017
TAF LSZG 131425Z 1315/1324 22005KT 9999 FEW050 
     TEMPO 1315/1324 FEW050TCU 
     PROB40 
     TEMPO 1315/1324 25015G30KT 4000 TSRA SCT060CB
       
LSZB 131950Z AUTO 15016KT 9999 RA FEW025 BKN075 SCT///CB 20/16 Q1018
LSZB 131920Z AUTO 15013KT 9999 FEW075 SCT085 BKN100 //////TCU 20/16 Q1018
TAF LSZB 131425Z 1315/1324 13007KT 9999 SCT080 
     PROB40 
     TEMPO 1316/1324 26015G30KT 4500 TSRA SCT050CB
       
LSGG 131950Z 21011KT 9999 SHRA FEW050TCU BKN065 BKN085 19/17 Q1019 BECMG NSW
LSGG 131920Z VRB02KT 9999 -TSRA FEW030 FEW050CB BKN070 19/17 Q1018 BECMG NSW
TAF LSGG 131725Z 1318/1424 VRB03KT 9999 FEW050 SCT090 TX28/1415Z TN18/1404Z 
     TEMPO 1318/1322 FEW060TCU 
     PROB40 
     TEMPO 1318/1321 23015G25KT TSRA SCT050CB
       
LSZR 131950Z AUTO VRB02KT CAVOK 22/17 Q1016
LSZR 131920Z AUTO 06004KT 360V170 CAVOK 20/17 Q1016
TAF LSZR 131425Z 1315/1324 31007KT 9999 FEW090 
     TEMPO 1315/1321 27015G25KT TSRA SCT060CB
       
LSGS 131950Z AUTO 29007KT 260V330 9999 -RA BKN090 //////TCU 20/17 Q1018
LSGS 131920Z AUTO 24008KT 210V280 9999 OVC075 //////TCU 20/16 Q1017 RERA
TAF LSGS 131425Z 1315/1324 06005KT 9999 FEW080 
     BECMG 1315/1317 25010KT 
     PROB30 
     TEMPO 1317/1321 TSRA SCT070CB 
     BECMG 1319/1321 VRB03KT
       
LSZA 131950Z AUTO 02005KT 9999 NSC 23/18 Q1015
LSZA 131920Z AUTO VRB01KT 9999 FEW095 23/20 Q1015 RERA
TAF LSZA 131425Z 1315/1324 VRB03KT 9999 SCT050TCU 
     PROB40 
     TEMPO 1315/1324 19012G25KT 4000 TSRA SCT070CB
       
EDNY 131950Z AUTO 05004KT 010V080 9999 // NCD 18/17 Q1016
EDNY 131920Z AUTO 03005KT 9999 // NCD 19/17 Q1016
TAF EDNY 131700Z 1318/1418 VRB03KT CAVOK 
     PROB30 
     TEMPO 1402/1404 4000 BR 
     PROB30 
     TEMPO 1404/1407 24015G25KT 4000 TSRA BKN012 BKN035CB 
     BECMG 1406/1408 24006KT 
     PROB30 
     TEMPO 1407/1412 26015G25KT TSRA SCT015 BKN030CB 
     BECMG 1416/1418 VRB03KT
       
EDDS 131950Z 08002KT CAVOK 20/18 Q1016 NOSIG
EDDS 131920Z VRB01KT CAVOK 20/19 Q1015 NOSIG
TAF EDDS 131700Z 1318/1418 VRB03KT CAVOK 
     TEMPO 1403/1411 21015G25KT 4000 TSRA BKN030CB 
     BECMG 1408/1410 26005KT 
     PROB30 
     TEMPO 1411/1418 4000 TSRA BKN040CB
       
LOWI 131950Z VRB01KT 9999 FEW007 SCT110 17/15 Q1019 NOSIG
LOWI 131920Z 19003KT 9999 FEW007 BKN110 18/16 Q1019 NOSIG
TAF LOWI 131715Z 1318/1418 27005KT 9999 -RA FEW010 SCT035 BKN080 TX23/1413Z
TN16/1403Z 
     TEMPO 1318/1321 SHRA SCT060CB BKN080 
     BECMG 1320/1321 NSW 
     PROB30 
     TEMPO 1400/1406 BKN010 
     TEMPO 1413/1418 25012G25KT TSRA SCT030CB BKN060
       
EDDM 131950Z VRB02KT CAVOK 19/16 Q1017 NOSIG
EDDM 131920Z 05002KT 9999 FEW020 20/16 Q1017 NOSIG
TAF EDDM 131700Z 1318/1424 25005KT CAVOK 
     BECMG 1319/1321 VRB03KT 
     BECMG 1407/1409 27008KT 
     PROB30 
     TEMPO 1414/1417 28015G25KT TSRA BKN025CB 
     BECMG 1418/1420 25003KT 
     PROB30 
     TEMPO 1420/1423 27008KT SHRA BKN025CB
       
LFMD 132000Z AUTO VRB02KT CAVOK 25/21 Q1014 NOSIG
LFMD 131930Z AUTO 00000KT CAVOK 25/21 Q1014 NOSIG
TAF LFMD 131400Z 1315/1415 16010KT CAVOK 
     BECMG 1316/1318 VRB02KT 
     TEMPO 1406/1410 BKN014 
     BECMG 1410/1412 16010KT SCT020 
     PROB30 
     TEMPO 1412/1415 TSRA SCT020 SCT030CB
       
LFLL 132000Z 14004KT 110V180 CAVOK 23/17 Q1016 NOSIG
LFLL 131930Z 08003KT CAVOK 23/17 Q1016 NOSIG
TAF LFLL 131700Z 1318/1424 16010KT 9999 FEW080TCU BKN120 
     PROB40 
     TEMPO 1318/1320 5000 TSRA BKN070CB 
     PROB40 
     TEMPO 1318/1324 SHRA SCT070TCU 
     BECMG 1322/1324 BKN050 
     BECMG 1410/1412 36006KT 
     BECMG 1413/1415 CAVOK
       
LIMC 131950Z 01006KT 9999 -RA FEW050 23/21 Q1014 NOSIG
LIMC 131920Z 35007KT 9999 -RA SCT050 24/20 Q1014 NOSIG
TAF LIMC 131700Z 1318/1424 VRB05KT 9999 SCT040 
     TEMPO 1318/1320 TSRA 
     TEMPO 1404/1415 4000 TSRA
       
LFPB 132000Z AUTO 04003KT 9999 SCT030/// BKN037/// BKN044/// ///TCU 21/20 Q1012 TEMPO 4000 SHRA SCT025CB BECMG 18012KT
LFPB 131930Z AUTO 05003KT 020V080 9999 -RA FEW019/// SCT028/// BKN036/// ///TCU 22/20 Q1012 TEMPO 4000 SHRA SCT025CB BECMG 18012KT
TAF LFPB 131700Z 1318/1418 18012KT 9999 SCT035 
     TEMPO 1318/1418 SCT035TCU 
     PROB30 
     TEMPO 1318/1324 4000 SHRA SCT025CB 
     TEMPO 1401/1408 BKN012 
     BECMG 1408/1410 26010KT 
     PROB30 
     TEMPO 1412/1416 4000 TSRA SCT025CB
       
LIPZ 131950Z 18006KT CAVOK 28/24 Q1012 NOSIG
LIPZ 131920Z 16005KT 130V200 CAVOK 28/25 Q1012 NOSIG
TAF LIPZ 131700Z 1318/1424 VRB05KT 6000 FEW030 
     TEMPO 1410/1415 4000 TSRA 
     TEMPO 1420/1424 4000 TSRA